Florence, OR (97439)

1:52 AM PDT on August 25, 2016 (GMT -0700)
Collard Lake | | Change Station
Active Advisory: Fire Weather Warning

Elev 174 ft 44.04 °N, 124.08 °W | Updated 9 seconds ago

Clear
Clear
55.8 °F
Feels Like 55.8 °F
N
0.0
Wind Variable Wind from NW

Today
High -- | Low -- °F
--% Chance of Precip.
Yesterday
High -- | Low -- °F
Precip. -- in
Pressure 30.06 in
Visibility 10.0 miles
Clouds Clear
Dew Point 56 °F
Humidity 99%
Rainfall 0.00 in
Snow Depth Not available.
6:32 AM 8:03 PM
Waning Gibbous, 48% visible
METAR KONP 250835Z AUTO 07003KT 10SM CLR 15/12 A3006 RMK AO2
Pressure 30.06 in
Visibility 10.0 miles
Clouds Clear
Dew Point 56 °F
Humidity 99%
Rainfall 0.00 in
Snow Depth Not available.
6:32 AM 8:03 PM
Waning Gibbous, 48% visible
METAR KONP 250835Z AUTO 07003KT 10SM CLR 15/12 A3006 RMK AO2

10-Day Weather Forecast

Almanac

Astronomy

Aug. 25, 2016 Rise Set
Actual Time
Civil Twilight
Nautical Twilight
Astronomical Twilight
Moon
Length of Visible Light
Length of Day
Tomorrow will be .
, % of the Moon is Illuminated

Today's Extremes

State Highs State Lows

Community

WunderPhotos

Upload Photos

1,934,814 photos uploaded!

WunderBlog® & News

Nearby

Air Quality

  Air Quality AQ Index Pollutant
Not available.

Snow Depth

Station Depth Elevation

Earthquake Activity

City Distance Mag. Time & Date
Minimum magnitude displayed is 2.5.

Coastal Water Temperatures

Place Temperature

Stations

Nearby Weather Stations

Station Location Temp. Windchill Dew Point Humidity Wind Precip. Elev Updated Type
                   

Watches & Warnings

Fire Weather Warning
Issued: 10:53 PM PDT Aug. 24, 2016 – National Weather Service

... Red flag warning remains in effect from noon to 9 PM PDT
Thursday for significantly unstable conditions for fire weather
zones or601... or602... or603... or605... or606... or607... or608...
or612... wa601... wa602... wa604 and wa660...

* affected area... in Oregon... fire weather zones 601... 602...
603... 605... 606... 607... 608 and 612. In Washington... fire
weather zones 601... 602... 604 and 660.

* Haines... mid level Haines 6 Thursday afternoon with dry and
unstable conditions.

* Relative humidity... as low as 16 percent away from the immediate
coast.

* Temperatures... in the mid to upper 90s... except around 90
degrees in the north Oregon Coast Range and Cascade valleys.

* Impacts... fire starts will have the potential for rapid spread
from spotting and for plume dominated growth due to
instability.

Precautionary/preparedness actions...

A red flag warning means that critical fire weather conditions
are either occurring now... .or will shortly. A combination of
strong instability and low relative humidity can contribute to
extreme fire behavior.



For more information from NOAA/National Weather Service visit...
http://weather.Gov/Portland (all lower case)